sensor_id;sensor_type;location;lat;lon;timestamp;temperature;humidity
16066;DHT22;8137;48.952;8.970;2022-08-07T00:00:44;14.70;92.80
16066;DHT22;8137;48.952;8.970;2022-08-07T00:03:10;14.70;93.50
16066;DHT22;8137;48.952;8.970;2022-08-07T00:05:36;14.60;94.10
16066;DHT22;8137;48.952;8.970;2022-08-07T00:08:03;14.50;93.70
16066;DHT22;8137;48.952;8.970;2022-08-07T00:10:29;14.60;93.70
16066;DHT22;8137;48.952;8.970;2022-08-07T00:12:56;14.50;93.90
16066;DHT22;8137;48.952;8.970;2022-08-07T00:15:21;14.40;94.80
16066;DHT22;8137;48.952;8.970;2022-08-07T00:17:47;14.40;95.90
16066;DHT22;8137;48.952;8.970;2022-08-07T00:20:13;14.40;95.30
16066;DHT22;8137;48.952;8.970;2022-08-07T00:22:38;14.40;95.00
16066;DHT22;8137;48.952;8.970;2022-08-07T00:25:05;14.40;96.30
16066;DHT22;8137;48.952;8.970;2022-08-07T00:27:31;14.30;97.00
16066;DHT22;8137;48.952;8.970;2022-08-07T00:29:57;14.40;98.10
16066;DHT22;8137;48.952;8.970;2022-08-07T00:32:23;14.30;98.40
16066;DHT22;8137;48.952;8.970;2022-08-07T00:34:48;14.30;98.80
16066;DHT22;8137;48.952;8.970;2022-08-07T00:37:17;14.40;99.70
16066;DHT22;8137;48.952;8.970;2022-08-07T00:39:43;14.30;99.80
16066;DHT22;8137;48.952;8.970;2022-08-07T00:42:08;14.20;99.90
16066;DHT22;8137;48.952;8.970;2022-08-07T00:44:35;14.20;99.90
16066;DHT22;8137;48.952;8.970;2022-08-07T00:47:04;14.10;99.90
16066;DHT22;8137;48.952;8.970;2022-08-07T00:49:30;14.10;99.90
16066;DHT22;8137;48.952;8.970;2022-08-07T00:51:56;14.20;99.90
16066;DHT22;8137;48.952;8.970;2022-08-07T00:54:22;14.30;99.90
16066;DHT22;8137;48.952;8.970;2022-08-07T00:56:49;14.20;99.90
16066;DHT22;8137;48.952;8.970;2022-08-07T00:59:15;14.20;99.90
16066;DHT22;8137;48.952;8.970;2022-08-07T01:01:41;14.20;99.90
16066;DHT22;8137;48.952;8.970;2022-08-07T01:04:07;14.20;99.90
16066;DHT22;8137;48.952;8.970;2022-08-07T01:06:34;14.10;99.90
16066;DHT22;8137;48.952;8.970;2022-08-07T01:09:00;14.10;99.90
16066;DHT22;8137;48.952;8.970;2022-08-07T01:11:30;14.00;99.90
16066;DHT22;8137;48.952;8.970;2022-08-07T01:13:56;13.90;99.90
16066;DHT22;8137;48.952;8.970;2022-08-07T01:16:22;13.90;99.90
16066;DHT22;8137;48.952;8.970;2022-08-07T01:18:48;13.90;99.90
16066;DHT22;8137;48.952;8.970;2022-08-07T01:21:18;14.00;99.90
16066;DHT22;8137;48.952;8.970;2022-08-07T01:23:53;14.00;99.90
16066;DHT22;8137;48.952;8.970;2022-08-07T01:26:20;14.00;99.90
16066;DHT22;8137;48.952;8.970;2022-08-07T01:28:48;13.90;99.90
16066;DHT22;8137;48.952;8.970;2022-08-07T01:31:19;13.90;99.90
16066;DHT22;8137;48.952;8.970;2022-08-07T01:33:45;13.80;99.90
16066;DHT22;8137;48.952;8.970;2022-08-07T01:36:11;13.80;99.90
16066;DHT22;8137;48.952;8.970;2022-08-07T01:38:38;13.80;99.90
16066;DHT22;8137;48.952;8.970;2022-08-07T01:41:05;13.80;99.90
16066;DHT22;8137;48.952;8.970;2022-08-07T01:43:35;13.70;99.90
16066;DHT22;8137;48.952;8.970;2022-08-07T01:46:01;13.70;99.90
16066;DHT22;8137;48.952;8.970;2022-08-07T01:48:27;13.70;99.90
16066;DHT22;8137;48.952;8.970;2022-08-07T01:50:57;13.70;99.90
16066;DHT22;8137;48.952;8.970;2022-08-07T01:53:26;13.70;99.90
16066;DHT22;8137;48.952;8.970;2022-08-07T01:55:55;13.70;99.90
16066;DHT22;8137;48.952;8.970;2022-08-07T01:58:26;13.70;99.90
16066;DHT22;8137;48.952;8.970;2022-08-07T02:00:58;13.70;99.90
16066;DHT22;8137;48.952;8.970;2022-08-07T02:03:26;13.70;99.90
16066;DHT22;8137;48.952;8.970;2022-08-07T02:06:04;13.70;99.90
16066;DHT22;8137;48.952;8.970;2022-08-07T02:08:33;13.70;99.90
16066;DHT22;8137;48.952;8.970;2022-08-07T02:11:02;13.60;99.90
16066;DHT22;8137;48.952;8.970;2022-08-07T02:13:30;13.60;99.90
16066;DHT22;8137;48.952;8.970;2022-08-07T02:15:59;13.50;99.90
16066;DHT22;8137;48.952;8.970;2022-08-07T02:18:29;13.40;99.90
16066;DHT22;8137;48.952;8.970;2022-08-07T02:20:56;13.40;99.90
16066;DHT22;8137;48.952;8.970;2022-08-07T02:23:24;13.30;99.90
16066;DHT22;8137;48.952;8.970;2022-08-07T02:25:51;13.20;99.90
16066;DHT22;8137;48.952;8.970;2022-08-07T02:28:21;13.30;99.90
16066;DHT22;8137;48.952;8.970;2022-08-07T02:30:47;13.30;99.90
16066;DHT22;8137;48.952;8.970;2022-08-07T02:33:15;13.20;99.90
16066;DHT22;8137;48.952;8.970;2022-08-07T02:35:43;13.20;99.90
16066;DHT22;8137;48.952;8.970;2022-08-07T02:38:10;13.20;99.90
16066;DHT22;8137;48.952;8.970;2022-08-07T02:40:37;13.10;99.90
16066;DHT22;8137;48.952;8.970;2022-08-07T02:43:04;13.10;99.90
16066;DHT22;8137;48.952;8.970;2022-08-07T02:45:30;13.00;99.90
16066;DHT22;8137;48.952;8.970;2022-08-07T02:47:57;12.90;99.90
16066;DHT22;8137;48.952;8.970;2022-08-07T02:50:23;12.90;99.90
16066;DHT22;8137;48.952;8.970;2022-08-07T02:52:58;13.00;99.90
16066;DHT22;8137;48.952;8.970;2022-08-07T02:55:28;13.00;99.90
16066;DHT22;8137;48.952;8.970;2022-08-07T02:57:59;13.00;99.90
16066;DHT22;8137;48.952;8.970;2022-08-07T03:00:27;12.90;99.90
16066;DHT22;8137;48.952;8.970;2022-08-07T03:02:55;12.90;99.90
16066;DHT22;8137;48.952;8.970;2022-08-07T03:05:22;12.90;99.90
16066;DHT22;8137;48.952;8.970;2022-08-07T03:07:48;12.90;99.90
16066;DHT22;8137;48.952;8.970;2022-08-07T03:10:15;12.90;99.90
16066;DHT22;8137;48.952;8.970;2022-08-07T03:12:43;12.90;99.90
16066;DHT22;8137;48.952;8.970;2022-08-07T03:15:10;12.80;99.90
16066;DHT22;8137;48.952;8.970;2022-08-07T03:17:36;12.80;99.90
16066;DHT22;8137;48.952;8.970;2022-08-07T03:20:04;12.80;99.90
16066;DHT22;8137;48.952;8.970;2022-08-07T03:22:30;12.80;99.90
16066;DHT22;8137;48.952;8.970;2022-08-07T03:24:56;12.90;99.90
16066;DHT22;8137;48.952;8.970;2022-08-07T03:27:24;12.80;99.90
16066;DHT22;8137;48.952;8.970;2022-08-07T03:29:51;12.70;99.90
16066;DHT22;8137;48.952;8.970;2022-08-07T03:32:38;12.70;99.90
16066;DHT22;8137;48.952;8.970;2022-08-07T03:35:13;12.70;99.90
16066;DHT22;8137;48.952;8.970;2022-08-07T03:37:42;12.70;99.90
16066;DHT22;8137;48.952;8.970;2022-08-07T03:40:09;12.70;99.90
16066;DHT22;8137;48.952;8.970;2022-08-07T03:42:35;12.70;99.90
16066;DHT22;8137;48.952;8.970;2022-08-07T03:45:01;12.70;99.90
16066;DHT22;8137;48.952;8.970;2022-08-07T03:47:28;12.60;99.90
16066;DHT22;8137;48.952;8.970;2022-08-07T03:49:56;12.50;99.90
16066;DHT22;8137;48.952;8.970;2022-08-07T03:52:24;12.50;99.90
16066;DHT22;8137;48.952;8.970;2022-08-07T03:54:50;12.50;99.90
16066;DHT22;8137;48.952;8.970;2022-08-07T03:57:16;12.60;99.90
16066;DHT22;8137;48.952;8.970;2022-08-07T03:59:43;12.60;99.90
16066;DHT22;8137;48.952;8.970;2022-08-07T04:02:09;12.60;99.90
16066;DHT22;8137;48.952;8.970;2022-08-07T04:04:35;12.60;99.90
16066;DHT22;8137;48.952;8.970;2022-08-07T04:07:00;12.60;99.90
16066;DHT22;8137;48.952;8.970;2022-08-07T04:09:27;12.50;99.90
16066;DHT22;8137;48.952;8.970;2022-08-07T04:11:54;12.50;99.90
16066;DHT22;8137;48.952;8.970;2022-08-07T04:14:20;12.50;99.90
16066;DHT22;8137;48.952;8.970;2022-08-07T04:16:47;12.50;99.90
16066;DHT22;8137;48.952;8.970;2022-08-07T04:19:13;12.50;99.90
16066;DHT22;8137;48.952;8.970;2022-08-07T04:21:39;12.50;99.90
16066;DHT22;8137;48.952;8.970;2022-08-07T04:24:06;12.60;99.90
16066;DHT22;8137;48.952;8.970;2022-08-07T04:26:35;12.60;99.90
16066;DHT22;8137;48.952;8.970;2022-08-07T04:29:03;12.60;99.90
16066;DHT22;8137;48.952;8.970;2022-08-07T04:31:30;12.60;99.90
16066;DHT22;8137;48.952;8.970;2022-08-07T04:33:56;12.70;99.90
16066;DHT22;8137;48.952;8.970;2022-08-07T04:36:22;12.60;99.90
16066;DHT22;8137;48.952;8.970;2022-08-07T04:38:48;12.50;99.90
16066;DHT22;8137;48.952;8.970;2022-08-07T04:41:14;12.50;99.90
16066;DHT22;8137;48.952;8.970;2022-08-07T04:43:41;12.50;99.90
16066;DHT22;8137;48.952;8.970;2022-08-07T04:49:18;12.70;99.90
16066;DHT22;8137;48.952;8.970;2022-08-07T04:52:02;12.80;99.90
16066;DHT22;8137;48.952;8.970;2022-08-07T05:03:09;13.30;99.90
16066;DHT22;8137;48.952;8.970;2022-08-07T05:05:43;13.30;99.90
16066;DHT22;8137;48.952;8.970;2022-08-07T05:11:02;13.50;99.90
16066;DHT22;8137;48.952;8.970;2022-08-07T05:13:36;13.60;99.90
16066;DHT22;8137;48.952;8.970;2022-08-07T05:16:06;13.80;99.90
16066;DHT22;8137;48.952;8.970;2022-08-07T05:18:43;13.90;99.90
16066;DHT22;8137;48.952;8.970;2022-08-07T05:21:11;14.00;99.90
16066;DHT22;8137;48.952;8.970;2022-08-07T05:23:54;14.00;99.90
16066;DHT22;8137;48.952;8.970;2022-08-07T05:26:23;14.20;99.90
16066;DHT22;8137;48.952;8.970;2022-08-07T05:28:52;14.30;99.90
16066;DHT22;8137;48.952;8.970;2022-08-07T05:31:21;14.40;99.90
16066;DHT22;8137;48.952;8.970;2022-08-07T05:33:48;14.50;99.90
16066;DHT22;8137;48.952;8.970;2022-08-07T05:36:16;14.50;99.90
16066;DHT22;8137;48.952;8.970;2022-08-07T05:38:43;14.60;99.90
16066;DHT22;8137;48.952;8.970;2022-08-07T05:41:09;14.70;99.90
16066;DHT22;8137;48.952;8.970;2022-08-07T05:43:36;14.80;99.90
16066;DHT22;8137;48.952;8.970;2022-08-07T05:46:03;15.00;99.90
16066;DHT22;8137;48.952;8.970;2022-08-07T05:48:29;15.20;99.90
16066;DHT22;8137;48.952;8.970;2022-08-07T05:50:56;15.30;99.90
16066;DHT22;8137;48.952;8.970;2022-08-07T05:53:23;15.50;99.90
16066;DHT22;8137;48.952;8.970;2022-08-07T05:55:50;15.70;99.90
16066;DHT22;8137;48.952;8.970;2022-08-07T05:58:16;15.90;99.90
16066;DHT22;8137;48.952;8.970;2022-08-07T06:00:43;16.00;99.90
16066;DHT22;8137;48.952;8.970;2022-08-07T06:03:11;16.10;99.90
16066;DHT22;8137;48.952;8.970;2022-08-07T06:05:39;16.30;99.90
16066;DHT22;8137;48.952;8.970;2022-08-07T06:08:05;16.40;99.90
16066;DHT22;8137;48.952;8.970;2022-08-07T06:10:31;16.40;99.90
16066;DHT22;8137;48.952;8.970;2022-08-07T06:12:59;16.50;99.90
16066;DHT22;8137;48.952;8.970;2022-08-07T06:15:25;16.70;99.90
16066;DHT22;8137;48.952;8.970;2022-08-07T06:17:53;16.70;99.90
16066;DHT22;8137;48.952;8.970;2022-08-07T06:20:19;16.90;99.90
16066;DHT22;8137;48.952;8.970;2022-08-07T06:22:46;17.10;99.90
16066;DHT22;8137;48.952;8.970;2022-08-07T06:25:12;17.20;99.90
16066;DHT22;8137;48.952;8.970;2022-08-07T06:27:38;17.30;99.90
16066;DHT22;8137;48.952;8.970;2022-08-07T06:30:04;17.40;99.90
16066;DHT22;8137;48.952;8.970;2022-08-07T06:32:30;17.40;99.90
16066;DHT22;8137;48.952;8.970;2022-08-07T06:34:55;17.40;99.90
16066;DHT22;8137;48.952;8.970;2022-08-07T06:37:21;17.50;99.90
16066;DHT22;8137;48.952;8.970;2022-08-07T06:39:46;17.60;99.90
16066;DHT22;8137;48.952;8.970;2022-08-07T06:42:19;17.70;99.90
16066;DHT22;8137;48.952;8.970;2022-08-07T06:44:46;17.90;99.90
16066;DHT22;8137;48.952;8.970;2022-08-07T06:47:13;18.00;99.90
16066;DHT22;8137;48.952;8.970;2022-08-07T06:49:39;18.10;99.90
16066;DHT22;8137;48.952;8.970;2022-08-07T06:52:07;18.20;99.90
16066;DHT22;8137;48.952;8.970;2022-08-07T06:54:36;18.30;99.90
16066;DHT22;8137;48.952;8.970;2022-08-07T06:57:04;18.50;99.90
16066;DHT22;8137;48.952;8.970;2022-08-07T06:59:41;18.70;99.90
16066;DHT22;8137;48.952;8.970;2022-08-07T07:02:15;18.90;99.90
16066;DHT22;8137;48.952;8.970;2022-08-07T07:04:43;19.10;99.60
16066;DHT22;8137;48.952;8.970;2022-08-07T07:07:09;19.20;98.30
16066;DHT22;8137;48.952;8.970;2022-08-07T07:09:35;19.20;98.80
16066;DHT22;8137;48.952;8.970;2022-08-07T07:17:44;19.50;97.60
16066;DHT22;8137;48.952;8.970;2022-08-07T07:20:15;19.50;97.60
16066;DHT22;8137;48.952;8.970;2022-08-07T07:22:43;19.50;97.30
16066;DHT22;8137;48.952;8.970;2022-08-07T07:25:10;19.70;97.10
16066;DHT22;8137;48.952;8.970;2022-08-07T07:27:41;19.80;97.60
16066;DHT22;8137;48.952;8.970;2022-08-07T07:30:10;19.90;97.10
16066;DHT22;8137;48.952;8.970;2022-08-07T07:32:38;19.90;95.80
16066;DHT22;8137;48.952;8.970;2022-08-07T07:35:07;20.00;95.40
16066;DHT22;8137;48.952;8.970;2022-08-07T07:37:35;20.20;94.70
16066;DHT22;8137;48.952;8.970;2022-08-07T07:40:05;20.30;95.70
16066;DHT22;8137;48.952;8.970;2022-08-07T07:42:32;20.30;94.80
16066;DHT22;8137;48.952;8.970;2022-08-07T07:45:04;20.40;94.90
16066;DHT22;8137;48.952;8.970;2022-08-07T07:47:32;20.40;94.50
16066;DHT22;8137;48.952;8.970;2022-08-07T07:50:00;20.60;95.20
16066;DHT22;8137;48.952;8.970;2022-08-07T07:52:27;20.90;94.90
16066;DHT22;8137;48.952;8.970;2022-08-07T07:54:54;21.00;95.00
16066;DHT22;8137;48.952;8.970;2022-08-07T07:57:22;21.20;95.40
16066;DHT22;8137;48.952;8.970;2022-08-07T07:59:49;21.40;93.60
16066;DHT22;8137;48.952;8.970;2022-08-07T08:02:17;21.40;92.80
16066;DHT22;8137;48.952;8.970;2022-08-07T08:04:44;21.40;92.60
16066;DHT22;8137;48.952;8.970;2022-08-07T08:07:10;21.70;92.60
16066;DHT22;8137;48.952;8.970;2022-08-07T08:09:39;21.90;90.90
16066;DHT22;8137;48.952;8.970;2022-08-07T08:12:05;22.10;90.90
16066;DHT22;8137;48.952;8.970;2022-08-07T08:14:35;22.00;91.10
16066;DHT22;8137;48.952;8.970;2022-08-07T08:17:02;22.20;90.40
16066;DHT22;8137;48.952;8.970;2022-08-07T08:19:29;22.40;89.20
16066;DHT22;8137;48.952;8.970;2022-08-07T08:21:57;22.40;89.90
16066;DHT22;8137;48.952;8.970;2022-08-07T08:24:43;22.50;87.60
16066;DHT22;8137;48.952;8.970;2022-08-07T08:27:36;22.50;87.10
16066;DHT22;8137;48.952;8.970;2022-08-07T08:30:08;22.80;87.70
16066;DHT22;8137;48.952;8.970;2022-08-07T08:32:37;23.00;85.40
16066;DHT22;8137;48.952;8.970;2022-08-07T08:35:07;23.20;83.20
16066;DHT22;8137;48.952;8.970;2022-08-07T08:37:35;23.50;81.10
16066;DHT22;8137;48.952;8.970;2022-08-07T08:40:04;23.50;78.90
16066;DHT22;8137;48.952;8.970;2022-08-07T08:42:37;23.60;78.20
16066;DHT22;8137;48.952;8.970;2022-08-07T08:50:39;24.00;74.70
16066;DHT22;8137;48.952;8.970;2022-08-07T08:56:27;24.00;74.40
16066;DHT22;8137;48.952;8.970;2022-08-07T09:01:33;24.40;72.80
16066;DHT22;8137;48.952;8.970;2022-08-07T09:04:21;24.40;72.00
16066;DHT22;8137;48.952;8.970;2022-08-07T09:07:13;24.30;69.40
16066;DHT22;8137;48.952;8.970;2022-08-07T09:10:03;24.40;69.70
16066;DHT22;8137;48.952;8.970;2022-08-07T09:18:35;24.80;69.50
16066;DHT22;8137;48.952;8.970;2022-08-07T09:23:50;25.00;67.70
16066;DHT22;8137;48.952;8.970;2022-08-07T09:28:54;24.60;63.00
16066;DHT22;8137;48.952;8.970;2022-08-07T09:34:30;24.70;61.80
16066;DHT22;8137;48.952;8.970;2022-08-07T09:37:03;24.70;64.00
16066;DHT22;8137;48.952;8.970;2022-08-07T09:39:49;24.80;62.80
16066;DHT22;8137;48.952;8.970;2022-08-07T09:48:04;25.10;60.40
16066;DHT22;8137;48.952;8.970;2022-08-07T09:53:32;25.50;56.20
16066;DHT22;8137;48.952;8.970;2022-08-07T10:07:41;25.20;52.50
16066;DHT22;8137;48.952;8.970;2022-08-07T10:18:35;25.00;51.80
16066;DHT22;8137;48.952;8.970;2022-08-07T10:30:04;26.10;52.10
16066;DHT22;8137;48.952;8.970;2022-08-07T10:40:37;26.20;49.80
16066;DHT22;8137;48.952;8.970;2022-08-07T10:45:54;26.30;49.90
16066;DHT22;8137;48.952;8.970;2022-08-07T10:54:25;26.70;48.70
16066;DHT22;8137;48.952;8.970;2022-08-07T11:02:34;26.50;47.30
16066;DHT22;8137;48.952;8.970;2022-08-07T11:13:48;26.70;48.40
16066;DHT22;8137;48.952;8.970;2022-08-07T11:16:42;26.90;48.10
16066;DHT22;8137;48.952;8.970;2022-08-07T11:19:23;27.00;47.90
16066;DHT22;8137;48.952;8.970;2022-08-07T11:22:09;27.00;46.40
16066;DHT22;8137;48.952;8.970;2022-08-07T11:27:20;27.20;46.00
16066;DHT22;8137;48.952;8.970;2022-08-07T11:32:39;27.50;44.80
16066;DHT22;8137;48.952;8.970;2022-08-07T11:35:14;27.60;43.80
16066;DHT22;8137;48.952;8.970;2022-08-07T11:37:58;27.80;44.70
16066;DHT22;8137;48.952;8.970;2022-08-07T11:40:48;28.00;43.10
16066;DHT22;8137;48.952;8.970;2022-08-07T11:43:22;28.20;43.80
16066;DHT22;8137;48.952;8.970;2022-08-07T12:00:44;27.90;42.30
16066;DHT22;8137;48.952;8.970;2022-08-07T12:08:43;27.60;43.90
16066;DHT22;8137;48.952;8.970;2022-08-07T12:11:15;27.60;42.50
16066;DHT22;8137;48.952;8.970;2022-08-07T12:17:09;27.70;42.40
16066;DHT22;8137;48.952;8.970;2022-08-07T12:22:09;28.00;41.90
16066;DHT22;8137;48.952;8.970;2022-08-07T12:27:36;28.00;41.80
16066;DHT22;8137;48.952;8.970;2022-08-07T12:30:06;28.20;41.00
16066;DHT22;8137;48.952;8.970;2022-08-07T12:32:59;28.10;41.40
16066;DHT22;8137;48.952;8.970;2022-08-07T12:35:27;28.20;41.50
16066;DHT22;8137;48.952;8.970;2022-08-07T12:37:56;28.60;42.30
16066;DHT22;8137;48.952;8.970;2022-08-07T12:40:25;28.70;41.30
16066;DHT22;8137;48.952;8.970;2022-08-07T12:42:52;28.80;41.20
16066;DHT22;8137;48.952;8.970;2022-08-07T12:45:22;29.00;41.00
16066;DHT22;8137;48.952;8.970;2022-08-07T12:48:13;28.80;40.40
16066;DHT22;8137;48.952;8.970;2022-08-07T12:51:14;28.40;41.60
16066;DHT22;8137;48.952;8.970;2022-08-07T12:54:00;28.30;41.90
16066;DHT22;8137;48.952;8.970;2022-08-07T12:56:55;28.40;41.90
16066;DHT22;8137;48.952;8.970;2022-08-07T12:59:29;28.80;42.00
16066;DHT22;8137;48.952;8.970;2022-08-07T13:13:16;28.60;40.50
16066;DHT22;8137;48.952;8.970;2022-08-07T13:16:54;28.70;40.20
16066;DHT22;8137;48.952;8.970;2022-08-07T13:21:41;28.20;41.50
16066;DHT22;8137;48.952;8.970;2022-08-07T13:24:25;28.40;41.60
16066;DHT22;8137;48.952;8.970;2022-08-07T13:26:59;28.60;41.70
16066;DHT22;8137;48.952;8.970;2022-08-07T13:29:49;28.70;39.80
16066;DHT22;8137;48.952;8.970;2022-08-07T13:32:28;28.90;40.60
16066;DHT22;8137;48.952;8.970;2022-08-07T13:35:18;29.00;41.20
16066;DHT22;8137;48.952;8.970;2022-08-07T13:38:16;28.80;40.40
16066;DHT22;8137;48.952;8.970;2022-08-07T13:43:46;28.60;39.90
16066;DHT22;8137;48.952;8.970;2022-08-07T13:46:15;28.50;39.60
16066;DHT22;8137;48.952;8.970;2022-08-07T13:48:51;28.50;40.20
16066;DHT22;8137;48.952;8.970;2022-08-07T13:51:18;28.60;40.60
16066;DHT22;8137;48.952;8.970;2022-08-07T13:53:52;28.60;40.90
16066;DHT22;8137;48.952;8.970;2022-08-07T13:56:21;28.40;40.50
16066;DHT22;8137;48.952;8.970;2022-08-07T13:58:50;28.30;41.10
16066;DHT22;8137;48.952;8.970;2022-08-07T14:01:37;28.50;41.50
16066;DHT22;8137;48.952;8.970;2022-08-07T14:04:10;28.50;40.70
16066;DHT22;8137;48.952;8.970;2022-08-07T14:06:43;28.70;42.20
16066;DHT22;8137;48.952;8.970;2022-08-07T14:09:21;28.70;40.70
16066;DHT22;8137;48.952;8.970;2022-08-07T14:11:59;28.90;39.80
16066;DHT22;8137;48.952;8.970;2022-08-07T14:14:29;28.90;39.60
16066;DHT22;8137;48.952;8.970;2022-08-07T14:16:59;28.90;40.10
16066;DHT22;8137;48.952;8.970;2022-08-07T14:22:09;28.70;39.30
16066;DHT22;8137;48.952;8.970;2022-08-07T14:24:41;28.50;39.40
16066;DHT22;8137;48.952;8.970;2022-08-07T14:27:11;28.40;40.00
16066;DHT22;8137;48.952;8.970;2022-08-07T14:29:46;28.40;40.10
16066;DHT22;8137;48.952;8.970;2022-08-07T14:32:13;28.50;39.80
16066;DHT22;8137;48.952;8.970;2022-08-07T14:34:43;28.50;39.80
16066;DHT22;8137;48.952;8.970;2022-08-07T14:37:13;28.60;39.40
16066;DHT22;8137;48.952;8.970;2022-08-07T14:39:42;28.80;40.80
16066;DHT22;8137;48.952;8.970;2022-08-07T14:42:11;28.80;38.70
16066;DHT22;8137;48.952;8.970;2022-08-07T14:44:42;28.50;38.80
16066;DHT22;8137;48.952;8.970;2022-08-07T14:47:10;28.50;39.20
16066;DHT22;8137;48.952;8.970;2022-08-07T14:49:37;28.70;39.50
16066;DHT22;8137;48.952;8.970;2022-08-07T14:52:05;28.60;39.10
16066;DHT22;8137;48.952;8.970;2022-08-07T14:54:33;28.40;39.40
16066;DHT22;8137;48.952;8.970;2022-08-07T14:57:02;28.40;39.40
16066;DHT22;8137;48.952;8.970;2022-08-07T14:59:33;28.60;39.30
16066;DHT22;8137;48.952;8.970;2022-08-07T15:02:13;28.90;40.40
16066;DHT22;8137;48.952;8.970;2022-08-07T15:04:43;29.10;40.50
16066;DHT22;8137;48.952;8.970;2022-08-07T15:07:16;29.20;39.20
16066;DHT22;8137;48.952;8.970;2022-08-07T15:09:42;29.20;40.00
16066;DHT22;8137;48.952;8.970;2022-08-07T15:12:11;29.00;38.20
16066;DHT22;8137;48.952;8.970;2022-08-07T15:14:48;29.00;37.80
16066;DHT22;8137;48.952;8.970;2022-08-07T15:17:19;28.90;38.60
16066;DHT22;8137;48.952;8.970;2022-08-07T15:19:57;28.80;39.30
16066;DHT22;8137;48.952;8.970;2022-08-07T15:22:28;28.80;38.80
16066;DHT22;8137;48.952;8.970;2022-08-07T15:24:54;28.60;38.20
16066;DHT22;8137;48.952;8.970;2022-08-07T15:27:23;28.70;38.80
16066;DHT22;8137;48.952;8.970;2022-08-07T15:29:53;28.80;38.50
16066;DHT22;8137;48.952;8.970;2022-08-07T15:32:22;28.60;38.40
16066;DHT22;8137;48.952;8.970;2022-08-07T15:34:54;28.60;38.10
16066;DHT22;8137;48.952;8.970;2022-08-07T15:37:24;28.60;38.80
16066;DHT22;8137;48.952;8.970;2022-08-07T15:39:59;28.70;38.30
16066;DHT22;8137;48.952;8.970;2022-08-07T15:45:26;28.70;38.30
16066;DHT22;8137;48.952;8.970;2022-08-07T15:47:56;28.70;38.30
16066;DHT22;8137;48.952;8.970;2022-08-07T15:50:27;28.60;38.30
16066;DHT22;8137;48.952;8.970;2022-08-07T15:55:52;28.30;38.80
16066;DHT22;8137;48.952;8.970;2022-08-07T15:58:22;28.30;38.30
16066;DHT22;8137;48.952;8.970;2022-08-07T16:00:53;28.50;39.40
16066;DHT22;8137;48.952;8.970;2022-08-07T16:03:21;28.50;39.60
16066;DHT22;8137;48.952;8.970;2022-08-07T16:05:50;28.50;38.60
16066;DHT22;8137;48.952;8.970;2022-08-07T16:08:22;28.50;38.40
16066;DHT22;8137;48.952;8.970;2022-08-07T16:10:55;28.40;38.70
16066;DHT22;8137;48.952;8.970;2022-08-07T16:18:53;28.30;37.10
16066;DHT22;8137;48.952;8.970;2022-08-07T16:21:41;28.20;37.30
16066;DHT22;8137;48.952;8.970;2022-08-07T16:30:04;28.30;38.10
16066;DHT22;8137;48.952;8.970;2022-08-07T16:32:41;28.30;38.10
16066;DHT22;8137;48.952;8.970;2022-08-07T16:35:15;28.20;38.20
16066;DHT22;8137;48.952;8.970;2022-08-07T16:40:33;28.20;39.20
16066;DHT22;8137;48.952;8.970;2022-08-07T16:51:29;28.10;38.50
16066;DHT22;8137;48.952;8.970;2022-08-07T17:02:40;28.20;39.50
16066;DHT22;8137;48.952;8.970;2022-08-07T17:07:56;28.10;39.50
16066;DHT22;8137;48.952;8.970;2022-08-07T17:21:25;27.60;41.10
16066;DHT22;8137;48.952;8.970;2022-08-07T17:24:02;27.50;40.20
16066;DHT22;8137;48.952;8.970;2022-08-07T17:29:59;27.40;40.60
16066;DHT22;8137;48.952;8.970;2022-08-07T17:35:11;27.30;40.70
16066;DHT22;8137;48.952;8.970;2022-08-07T17:38:02;27.20;41.30
16066;DHT22;8137;48.952;8.970;2022-08-07T17:40:42;27.30;41.20
16066;DHT22;8137;48.952;8.970;2022-08-07T17:43:16;27.20;40.70
16066;DHT22;8137;48.952;8.970;2022-08-07T17:45:53;27.30;40.90
16066;DHT22;8137;48.952;8.970;2022-08-07T17:48:31;27.20;41.20
16066;DHT22;8137;48.952;8.970;2022-08-07T17:51:03;27.20;41.40
16066;DHT22;8137;48.952;8.970;2022-08-07T17:54:10;27.10;41.80
16066;DHT22;8137;48.952;8.970;2022-08-07T17:56:56;27.20;41.60
16066;DHT22;8137;48.952;8.970;2022-08-07T17:59:43;27.20;41.10
16066;DHT22;8137;48.952;8.970;2022-08-07T18:02:21;27.10;41.30
16066;DHT22;8137;48.952;8.970;2022-08-07T18:08:12;27.00;42.20
16066;DHT22;8137;48.952;8.970;2022-08-07T18:10:47;26.90;41.20
16066;DHT22;8137;48.952;8.970;2022-08-07T18:16:38;26.70;41.20
16066;DHT22;8137;48.952;8.970;2022-08-07T18:19:32;26.60;41.20
16066;DHT22;8137;48.952;8.970;2022-08-07T18:22:21;26.50;41.70
16066;DHT22;8137;48.952;8.970;2022-08-07T18:24:54;26.30;41.90
16066;DHT22;8137;48.952;8.970;2022-08-07T18:30:29;26.20;42.40
16066;DHT22;8137;48.952;8.970;2022-08-07T18:33:35;26.20;42.40
16066;DHT22;8137;48.952;8.970;2022-08-07T18:36:20;26.40;42.60
16066;DHT22;8137;48.952;8.970;2022-08-07T18:39:29;26.70;42.60
16066;DHT22;8137;48.952;8.970;2022-08-07T18:42:15;26.60;42.30
16066;DHT22;8137;48.952;8.970;2022-08-07T18:45:10;26.20;42.60
16066;DHT22;8137;48.952;8.970;2022-08-07T19:04:11;23.70;46.60
16066;DHT22;8137;48.952;8.970;2022-08-07T19:06:53;23.40;46.60
16066;DHT22;8137;48.952;8.970;2022-08-07T19:09:27;23.30;47.10
16066;DHT22;8137;48.952;8.970;2022-08-07T19:12:22;23.10;47.10
16066;DHT22;8137;48.952;8.970;2022-08-07T19:17:57;22.80;47.70
16066;DHT22;8137;48.952;8.970;2022-08-07T19:20:33;22.70;48.30
16066;DHT22;8137;48.952;8.970;2022-08-07T19:23:15;22.60;48.60
16066;DHT22;8137;48.952;8.970;2022-08-07T19:25:42;22.40;49.20
16066;DHT22;8137;48.952;8.970;2022-08-07T19:28:14;22.30;49.40
16066;DHT22;8137;48.952;8.970;2022-08-07T19:30:43;22.20;50.00
16066;DHT22;8137;48.952;8.970;2022-08-07T19:33:09;22.10;49.60
16066;DHT22;8137;48.952;8.970;2022-08-07T19:35:36;22.00;50.50
16066;DHT22;8137;48.952;8.970;2022-08-07T19:38:09;21.90;51.20
16066;DHT22;8137;48.952;8.970;2022-08-07T19:40:38;21.80;50.10
16066;DHT22;8137;48.952;8.970;2022-08-07T19:43:29;21.80;50.70
16066;DHT22;8137;48.952;8.970;2022-08-07T19:45:57;21.70;50.90
16066;DHT22;8137;48.952;8.970;2022-08-07T19:48:39;21.50;52.20
16066;DHT22;8137;48.952;8.970;2022-08-07T19:51:06;21.40;55.50
16066;DHT22;8137;48.952;8.970;2022-08-07T19:53:32;21.10;58.20
16066;DHT22;8137;48.952;8.970;2022-08-07T19:56:04;20.90;59.60
16066;DHT22;8137;48.952;8.970;2022-08-07T19:58:33;20.80;59.80
16066;DHT22;8137;48.952;8.970;2022-08-07T20:00:59;20.60;61.10
16066;DHT22;8137;48.952;8.970;2022-08-07T20:03:25;20.50;61.40
16066;DHT22;8137;48.952;8.970;2022-08-07T20:05:59;20.40;61.70
16066;DHT22;8137;48.952;8.970;2022-08-07T20:08:29;20.20;62.60
16066;DHT22;8137;48.952;8.970;2022-08-07T20:11:04;20.20;62.90
16066;DHT22;8137;48.952;8.970;2022-08-07T20:16:07;20.00;62.50
16066;DHT22;8137;48.952;8.970;2022-08-07T20:18:34;19.90;62.80
16066;DHT22;8137;48.952;8.970;2022-08-07T20:21:04;19.80;63.00
16066;DHT22;8137;48.952;8.970;2022-08-07T20:23:31;19.80;61.40
16066;DHT22;8137;48.952;8.970;2022-08-07T20:26:04;19.70;63.60
16066;DHT22;8137;48.952;8.970;2022-08-07T20:28:30;19.60;64.10